createdAt,value
2022-09-23T00:01:10.098Z,9.63
2022-09-23T00:03:39.166Z,10.70
2022-09-23T00:06:11.712Z,10.20
2022-09-23T00:08:39.468Z,10.88
2022-09-23T00:11:08.145Z,10.80
2022-09-23T00:13:36.384Z,9.95
2022-09-23T00:16:07.456Z,10.63
2022-09-23T00:18:34.360Z,10.98
2022-09-23T00:21:05.564Z,10.65
2022-09-23T00:23:33.028Z,11.15
2022-09-23T00:26:01.858Z,10.32
2022-09-23T00:28:28.771Z,9.90
2022-09-23T00:30:55.349Z,10.65
2022-09-23T00:33:22.186Z,10.68
2022-09-23T00:35:49.881Z,12.52
2022-09-23T00:38:17.199Z,11.10
2022-09-23T00:40:46.139Z,11.32
2022-09-23T00:43:14.842Z,11.75
2022-09-23T00:45:46.966Z,12.52
2022-09-23T00:48:20.624Z,12.38
2022-09-23T00:50:54.290Z,12.57
2022-09-23T00:53:26.608Z,12.07
2022-09-23T00:56:00.601Z,12.85
2022-09-23T00:58:32.626Z,11.93
2022-09-23T01:01:00.694Z,11.18
2022-09-23T01:03:28.144Z,11.50
2022-09-23T01:05:56.013Z,10.65
2022-09-23T01:08:23.882Z,10.88
2022-09-23T01:11:27.613Z,11.18
2022-09-23T01:14:16.685Z,9.93
2022-09-23T01:16:55.641Z,11.43
2022-09-23T01:19:34.247Z,11.45
2022-09-23T01:22:28.223Z,11.13
2022-09-23T01:25:25.893Z,12.25
2022-09-23T01:28:05.586Z,10.93
2022-09-23T01:31:07.630Z,11.23
2022-09-23T01:33:34.673Z,10.73
2022-09-23T01:36:19.217Z,10.05
2022-09-23T01:39:13.048Z,10.70
2022-09-23T01:41:45.484Z,11.13
2022-09-23T01:44:21.933Z,10.82
2022-09-23T01:46:52.992Z,10.55
2022-09-23T01:49:27.712Z,10.90
2022-09-23T01:52:03.568Z,10.00
2022-09-23T01:54:38.934Z,11.00
2022-09-23T01:57:13.529Z,10.88
2022-09-23T01:59:54.970Z,10.05
2022-09-23T02:02:30.808Z,12.13
2022-09-23T02:05:00.437Z,11.52
2022-09-23T02:07:29.727Z,11.15
2022-09-23T02:10:13.528Z,11.18
2022-09-23T02:12:45.603Z,10.80
2022-09-23T02:15:17.017Z,10.50
2022-09-23T02:17:55.680Z,10.68
2022-09-23T02:20:31.004Z,10.50
2022-09-23T02:23:07.690Z,10.80
2022-09-23T02:25:57.370Z,11.52
2022-09-23T02:28:41.932Z,11.18
2022-09-23T02:31:13.191Z,11.73
2022-09-23T02:33:52.806Z,10.68
2022-09-23T02:36:27.792Z,12.70
2022-09-23T02:41:52.000Z,12.00
2022-09-23T02:44:20.077Z,12.15
2022-09-23T02:46:47.033Z,11.38
2022-09-23T02:49:20.598Z,11.90
2022-09-23T02:51:47.196Z,12.48
2022-09-23T02:54:18.667Z,11.43
2022-09-23T02:56:45.517Z,12.27
2022-09-23T02:59:13.103Z,11.80
2022-09-23T03:01:54.356Z,11.93
2022-09-23T03:05:05.232Z,11.73
2022-09-23T03:08:12.914Z,11.68
2022-09-23T03:10:59.587Z,11.23
2022-09-23T03:14:27.812Z,11.98
2022-09-23T03:17:07.472Z,11.45
2022-09-23T03:19:48.428Z,10.32
2022-09-23T03:22:25.132Z,11.13
2022-09-23T03:24:54.266Z,10.30
2022-09-23T03:27:25.873Z,10.90
2022-09-23T03:29:54.335Z,12.48
2022-09-23T03:32:24.818Z,11.15
2022-09-23T03:34:54.269Z,11.13
2022-09-23T03:37:26.360Z,10.50
2022-09-23T03:40:19.416Z,9.82
2022-09-23T03:42:48.945Z,10.75
2022-09-23T03:45:20.398Z,9.00
2022-09-23T03:47:47.108Z,10.13
2022-09-23T03:50:14.465Z,9.43
2022-09-23T03:52:41.085Z,10.05
2022-09-23T03:55:08.195Z,9.35
2022-09-23T03:57:35.019Z,10.65
2022-09-23T04:00:01.850Z,10.07
2022-09-23T04:02:28.422Z,10.10
2022-09-23T04:04:56.112Z,9.70
2022-09-23T04:07:22.691Z,9.98
2022-09-23T04:09:49.201Z,10.35
2022-09-23T04:12:16.853Z,9.98
2022-09-23T04:14:44.012Z,9.70
2022-09-23T04:17:11.297Z,8.52
2022-09-23T04:19:37.832Z,10.25
2022-09-23T04:22:05.252Z,10.00
2022-09-23T04:24:31.793Z,9.13
2022-09-23T04:26:58.439Z,10.38
2022-09-23T04:29:25.572Z,9.63
2022-09-23T04:31:53.000Z,11.90
2022-09-23T04:34:20.449Z,9.43
2022-09-23T04:36:48.721Z,9.70
2022-09-23T04:39:16.750Z,9.43
2022-09-23T04:41:44.750Z,9.75
2022-09-23T04:44:12.638Z,10.48
2022-09-23T04:46:43.367Z,9.75
2022-09-23T04:49:10.057Z,9.05
2022-09-23T04:51:36.640Z,9.50
2022-09-23T04:54:03.210Z,9.20
2022-09-23T04:56:34.249Z,8.57
2022-09-23T04:59:01.873Z,8.02
2022-09-23T05:01:34.640Z,8.93
2022-09-23T05:04:14.045Z,8.68
2022-09-23T05:06:44.118Z,7.57
2022-09-23T05:09:17.265Z,9.02
2022-09-23T05:11:45.504Z,8.73
2022-09-23T05:14:12.155Z,7.93
2022-09-23T05:16:38.745Z,9.30
2022-09-23T05:19:05.664Z,8.40
2022-09-23T05:21:32.289Z,7.93
2022-09-23T05:24:00.778Z,8.77
2022-09-23T05:26:30.552Z,7.57
2022-09-23T05:28:58.466Z,7.90
2022-09-23T05:31:27.418Z,8.23
2022-09-23T05:34:04.810Z,7.78
2022-09-23T05:36:37.882Z,8.10
2022-09-23T05:39:06.570Z,8.02
2022-09-23T05:41:33.988Z,8.35
2022-09-23T05:44:01.276Z,8.52
2022-09-23T05:46:29.950Z,8.68
2022-09-23T05:49:02.076Z,7.55
2022-09-23T05:51:31.404Z,7.95
2022-09-23T05:53:59.159Z,8.02
2022-09-23T05:56:27.744Z,5.78
2022-09-23T05:58:57.054Z,7.03
2022-09-23T06:01:26.638Z,6.65
2022-09-23T06:03:55.392Z,7.65
2022-09-23T06:06:27.964Z,14.68
2022-09-23T06:08:54.500Z,8.73
2022-09-23T06:11:21.589Z,8.18
2022-09-23T06:13:49.436Z,8.07
2022-09-23T06:16:16.504Z,7.63
2022-09-23T06:18:45.166Z,7.22
2022-09-23T06:21:17.449Z,6.97
2022-09-23T06:23:45.043Z,7.30
2022-09-23T06:26:13.931Z,7.25
2022-09-23T06:28:43.785Z,7.95
2022-09-23T06:31:15.415Z,7.25
2022-09-23T06:33:43.296Z,8.32
2022-09-23T06:36:10.678Z,6.32
2022-09-23T06:38:41.962Z,6.78
2022-09-23T06:41:09.124Z,7.50
2022-09-23T06:43:35.877Z,7.45
2022-09-23T06:46:05.921Z,7.43
2022-09-23T06:48:35.297Z,7.28
2022-09-23T06:51:04.932Z,6.50
2022-09-23T06:53:32.350Z,7.32
2022-09-23T06:56:11.401Z,7.60
2022-09-23T06:58:39.026Z,8.10
2022-09-23T07:01:08.322Z,7.55
2022-09-23T07:03:35.561Z,8.07
2022-09-23T07:06:02.948Z,9.23
2022-09-23T07:08:30.916Z,7.55
2022-09-23T07:10:59.830Z,8.07
2022-09-23T07:13:27.493Z,8.38
2022-09-23T07:15:58.320Z,7.68
2022-09-23T07:18:26.847Z,8.38
2022-09-23T07:20:54.750Z,7.85
2022-09-23T07:23:21.316Z,7.75
2022-09-23T07:25:49.522Z,7.82
2022-09-23T07:28:16.056Z,8.90
2022-09-23T07:30:56.239Z,9.15
2022-09-23T07:33:32.992Z,7.78
2022-09-23T07:36:11.136Z,8.25
2022-09-23T07:38:44.242Z,7.97
2022-09-23T07:41:14.382Z,8.52
2022-09-23T07:43:41.247Z,7.32
2022-09-23T07:46:11.175Z,8.05
2022-09-23T07:48:38.693Z,6.60
2022-09-23T07:51:16.529Z,6.38
2022-09-23T07:53:43.296Z,7.68
2022-09-23T07:56:10.026Z,7.30
2022-09-23T07:58:36.609Z,7.60
2022-09-23T08:01:09.037Z,5.65
2022-09-23T08:03:36.356Z,6.32
2022-09-23T08:06:08.611Z,6.35
2022-09-23T08:08:35.875Z,5.82
2022-09-23T08:11:04.408Z,6.60
2022-09-23T08:13:31.013Z,5.80
2022-09-23T08:15:58.334Z,5.95
2022-09-23T08:18:25.573Z,7.05
2022-09-23T08:20:52.302Z,7.03
2022-09-23T08:23:19.936Z,7.78
2022-09-23T08:25:47.320Z,7.05
2022-09-23T08:28:18.761Z,8.55
2022-09-23T08:30:48.364Z,8.63
2022-09-23T08:33:19.672Z,6.85
2022-09-23T08:35:49.349Z,7.03
2022-09-23T08:38:16.264Z,7.28
2022-09-23T08:40:45.044Z,7.30
2022-09-23T08:43:22.805Z,7.53
2022-09-23T08:45:51.158Z,7.50
2022-09-23T08:48:28.587Z,8.63
2022-09-23T08:51:11.387Z,8.02
2022-09-23T08:53:38.814Z,7.63
2022-09-23T08:56:17.339Z,7.15
2022-09-23T08:58:49.326Z,7.35
2022-09-23T09:01:41.818Z,7.38
2022-09-23T09:04:14.557Z,7.60
2022-09-23T09:06:53.531Z,7.45
2022-09-23T09:09:30.411Z,7.63
2022-09-23T09:12:11.502Z,6.97
2022-09-23T09:14:50.200Z,6.32
2022-09-23T09:17:48.798Z,5.00
2022-09-23T09:20:17.269Z,5.65
2022-09-23T09:22:52.816Z,6.30
2022-09-23T09:25:37.984Z,4.90
2022-09-23T09:28:30.913Z,4.30
2022-09-23T09:31:01.350Z,4.28
2022-09-23T09:33:45.595Z,4.03
2022-09-23T09:36:23.749Z,3.20
2022-09-23T09:38:51.277Z,3.95
2022-09-23T09:41:21.468Z,4.05
2022-09-23T09:43:53.448Z,3.80
2022-09-23T09:46:36.415Z,4.07
2022-09-23T09:49:12.010Z,4.90
2022-09-23T09:51:41.238Z,5.15
2022-09-23T09:54:23.297Z,4.63
2022-09-23T09:56:51.810Z,5.00
2022-09-23T09:59:25.827Z,4.07
2022-09-23T10:02:32.647Z,3.80
2022-09-23T10:05:02.410Z,4.10
2022-09-23T10:07:31.760Z,3.17
2022-09-23T10:10:28.915Z,2.75
2022-09-23T10:13:15.711Z,3.08
2022-09-23T10:15:45.171Z,2.38
2022-09-23T10:18:28.412Z,2.08
2022-09-23T10:21:08.421Z,1.80
2022-09-23T10:23:40.913Z,2.45
2022-09-23T10:26:12.358Z,2.60
2022-09-23T10:28:47.041Z,3.03
2022-09-23T10:31:24.696Z,2.83
2022-09-23T10:34:00.449Z,3.33
2022-09-23T10:36:29.468Z,2.67
2022-09-23T10:39:23.267Z,2.90
2022-09-23T10:42:37.765Z,2.65
2022-09-23T10:45:43.320Z,2.92
2022-09-23T10:48:27.201Z,3.00
2022-09-23T10:50:55.530Z,2.58
2022-09-23T10:53:57.102Z,3.05
2022-09-23T10:56:31.458Z,2.67
2022-09-23T10:59:01.050Z,2.35
2022-09-23T11:01:31.055Z,2.33
2022-09-23T11:04:33.218Z,2.22
2022-09-23T11:07:25.860Z,2.15
2022-09-23T11:10:28.993Z,2.25
2022-09-23T11:13:11.661Z,2.13
2022-09-23T11:15:56.797Z,2.47
2022-09-23T11:21:12.960Z,2.03
2022-09-23T11:24:07.104Z,1.42
2022-09-23T11:26:42.116Z,2.45
2022-09-23T11:29:35.390Z,1.70
2022-09-23T11:32:08.884Z,2.28
2022-09-23T11:35:13.620Z,2.15
2022-09-23T11:37:48.203Z,1.95
2022-09-23T11:40:35.475Z,1.83
2022-09-23T11:43:23.562Z,1.73
2022-09-23T11:45:58.969Z,1.80
2022-09-23T11:48:38.106Z,2.70
2022-09-23T11:51:19.726Z,1.95
2022-09-23T11:53:55.961Z,2.00
2022-09-23T11:56:35.197Z,2.17
2022-09-23T11:59:11.462Z,1.80
2022-09-23T12:01:47.361Z,1.85
2022-09-23T12:04:25.989Z,2.83
2022-09-23T12:07:01.114Z,1.88
2022-09-23T12:09:58.568Z,2.08
2022-09-23T12:12:39.422Z,2.50
2022-09-23T12:15:34.424Z,2.10
2022-09-23T12:18:48.685Z,1.98
2022-09-23T12:21:51.563Z,1.90
2022-09-23T12:24:39.313Z,2.08
2022-09-23T12:27:11.425Z,1.63
2022-09-23T12:29:40.428Z,2.10
2022-09-23T12:32:10.083Z,1.88
2022-09-23T12:34:47.933Z,2.28
2022-09-23T12:37:25.382Z,1.80
2022-09-23T12:39:52.399Z,2.05
2022-09-23T12:42:22.321Z,2.20
2022-09-23T12:44:50.613Z,2.33
2022-09-23T12:47:21.219Z,2.20
2022-09-23T12:49:48.603Z,2.42
2022-09-23T12:52:18.220Z,2.80
2022-09-23T12:54:47.043Z,2.80
2022-09-23T12:57:33.827Z,2.92
2022-09-23T13:00:13.319Z,3.00
2022-09-23T13:03:13.537Z,3.03
2022-09-23T13:06:06.136Z,2.45
2022-09-23T13:08:37.863Z,2.53
2022-09-23T13:11:08.565Z,2.47
2022-09-23T13:13:44.676Z,2.60
2022-09-23T13:16:29.614Z,3.08
2022-09-23T13:19:01.221Z,5.03
2022-09-23T13:21:43.019Z,4.18
2022-09-23T13:24:22.344Z,3.35
2022-09-23T13:27:02.089Z,3.28
2022-09-23T13:29:41.017Z,4.10
2022-09-23T13:32:12.794Z,3.60
2022-09-23T13:34:41.506Z,3.45
2022-09-23T13:37:21.603Z,3.45
2022-09-23T13:39:49.231Z,3.13
2022-09-23T13:42:28.660Z,3.03
2022-09-23T13:44:59.093Z,3.00
2022-09-23T13:47:29.439Z,2.92
2022-09-23T13:49:56.488Z,2.55
2022-09-23T13:52:32.880Z,3.00
2022-09-23T13:54:59.685Z,2.83
2022-09-23T13:57:29.463Z,6.78
2022-09-23T14:00:17.597Z,2.53
2022-09-23T14:02:44.484Z,2.63
2022-09-23T14:05:12.655Z,2.35
2022-09-23T14:07:39.776Z,2.45
2022-09-23T14:10:08.095Z,2.30
2022-09-23T14:12:39.395Z,2.97
2022-09-23T14:15:07.361Z,2.50
2022-09-23T14:17:33.937Z,2.30
2022-09-23T14:20:01.087Z,2.17
2022-09-23T14:22:29.854Z,2.10
2022-09-23T14:24:57.500Z,2.20
2022-09-23T14:27:28.879Z,2.75
2022-09-23T14:29:56.115Z,4.55
2022-09-23T14:32:27.572Z,6.32
2022-09-23T14:35:00.185Z,4.70
2022-09-23T14:37:56.775Z,2.55
2022-09-23T14:40:29.331Z,2.90
2022-09-23T14:43:02.270Z,2.08
2022-09-23T14:45:33.259Z,2.08
2022-09-23T14:48:04.903Z,2.20
2022-09-23T14:50:47.256Z,2.03
2022-09-23T14:53:22.815Z,1.95
2022-09-23T14:55:57.410Z,2.22
2022-09-23T14:58:28.090Z,2.20
2022-09-23T15:00:56.543Z,1.90
2022-09-23T15:03:23.674Z,1.90
2022-09-23T15:05:57.906Z,1.95
2022-09-23T15:08:27.628Z,1.75
2022-09-23T15:10:54.954Z,1.85
2022-09-23T15:13:27.361Z,2.22
2022-09-23T15:15:55.579Z,1.92
2022-09-23T15:18:28.160Z,2.22
2022-09-23T15:20:58.051Z,2.17
2022-09-23T15:23:36.330Z,2.08
2022-09-23T15:26:09.979Z,2.33
2022-09-23T15:28:36.530Z,2.08
2022-09-23T15:31:05.687Z,2.28
2022-09-23T15:33:32.666Z,2.58
2022-09-23T15:35:59.168Z,2.17
2022-09-23T15:38:27.258Z,2.17
2022-09-23T15:40:54.401Z,2.65
2022-09-23T15:43:24.148Z,2.28
2022-09-23T15:46:05.006Z,2.13
2022-09-23T15:48:38.799Z,1.98
2022-09-23T15:51:08.163Z,2.13
2022-09-23T15:53:35.616Z,2.15
2022-09-23T15:56:02.377Z,2.10
2022-09-23T15:58:29.056Z,2.10
2022-09-23T16:00:57.176Z,2.10
2022-09-23T16:03:30.892Z,2.38
2022-09-23T16:06:01.007Z,2.30
2022-09-23T16:08:28.381Z,2.55
2022-09-23T16:10:55.527Z,2.42
2022-09-23T16:13:22.284Z,2.60
2022-09-23T16:15:48.931Z,2.17
2022-09-23T16:18:15.585Z,2.00
2022-09-23T16:20:44.803Z,2.35
2022-09-23T16:23:34.545Z,2.25
2022-09-23T16:26:06.564Z,2.72
2022-09-23T16:28:33.200Z,2.40
2022-09-23T16:30:59.766Z,2.17
2022-09-23T16:33:27.716Z,2.72
2022-09-23T16:35:54.617Z,2.50
2022-09-23T16:38:21.204Z,2.45
2022-09-23T16:40:47.825Z,3.20
2022-09-23T16:43:14.578Z,2.50
2022-09-23T16:45:41.286Z,2.88
2022-09-23T16:48:07.880Z,2.90
2022-09-23T16:50:34.407Z,2.47
2022-09-23T16:53:01.374Z,2.45
2022-09-23T16:55:27.954Z,3.47
2022-09-23T16:57:55.442Z,3.30
2022-09-23T17:00:41.784Z,3.00
2022-09-23T17:03:29.917Z,2.80
2022-09-23T17:05:56.717Z,3.47
2022-09-23T17:08:23.291Z,3.00
2022-09-23T17:10:58.361Z,4.50
2022-09-23T17:13:26.089Z,5.45
2022-09-23T17:15:53.336Z,5.65
2022-09-23T17:18:20.767Z,4.95
2022-09-23T17:21:03.595Z,4.60
2022-09-23T17:23:31.761Z,4.70
2022-09-23T17:25:59.970Z,6.03
2022-09-23T17:28:26.871Z,5.43
2022-09-23T17:31:01.999Z,5.60
2022-09-23T17:33:30.874Z,5.70
2022-09-23T17:36:00.184Z,6.20
2022-09-23T17:38:29.286Z,4.55
2022-09-23T17:40:59.187Z,6.03
2022-09-23T17:43:26.026Z,5.72
2022-09-23T17:45:54.650Z,16.70
2022-09-23T17:48:25.502Z,8.90
2022-09-23T17:50:59.497Z,6.88
2022-09-23T17:53:26.264Z,7.33
2022-09-23T17:56:01.106Z,5.82
2022-09-23T18:00:56.799Z,7.38
2022-09-23T18:03:24.695Z,5.90
2022-09-23T18:05:52.000Z,5.97
2022-09-23T18:08:18.751Z,5.78
2022-09-23T18:10:45.284Z,5.90
2022-09-23T18:13:12.115Z,7.22
2022-09-23T18:15:39.847Z,6.97
2022-09-23T18:18:06.862Z,6.63
2022-09-23T18:20:33.539Z,6.50
2022-09-23T18:23:00.180Z,5.80
2022-09-23T18:25:39.312Z,7.28
2022-09-23T18:28:06.551Z,7.10
2022-09-23T18:30:33.610Z,6.25
2022-09-23T18:33:00.344Z,6.72
2022-09-23T18:35:26.857Z,5.97
2022-09-23T18:37:53.435Z,7.68
2022-09-23T18:40:20.066Z,6.28
2022-09-23T18:42:47.265Z,7.47
2022-09-23T18:45:13.783Z,7.00
2022-09-23T18:47:58.881Z,6.55
2022-09-23T18:50:40.379Z,6.43
2022-09-23T18:53:07.612Z,6.47
2022-09-23T18:55:35.503Z,7.55
2022-09-23T18:58:02.400Z,6.65
2022-09-23T19:00:30.035Z,7.15
2022-09-23T19:02:56.695Z,7.45
2022-09-23T19:05:23.235Z,8.10
2022-09-23T19:07:49.797Z,6.88
2022-09-23T19:10:16.461Z,7.75
2022-09-23T19:12:42.960Z,7.53
2022-09-23T19:15:09.637Z,7.07
2022-09-23T19:17:36.181Z,7.97
2022-09-23T19:20:02.732Z,8.18
2022-09-23T19:22:30.455Z,8.68
2022-09-23T19:24:56.959Z,7.70
2022-09-23T19:27:23.510Z,8.60
2022-09-23T19:29:50.261Z,9.27
2022-09-23T19:32:16.972Z,8.07
2022-09-23T19:34:45.205Z,9.13
2022-09-23T19:37:12.216Z,8.65
2022-09-23T19:39:40.668Z,9.20
2022-09-23T19:42:07.706Z,8.75
2022-09-23T19:44:37.807Z,9.02
2022-09-23T19:47:04.745Z,9.25
2022-09-23T19:49:31.387Z,9.43
2022-09-23T19:51:57.893Z,8.57
2022-09-23T19:54:26.964Z,9.82
2022-09-23T19:56:53.628Z,10.98
2022-09-23T19:59:20.139Z,9.10
2022-09-23T20:01:48.086Z,8.50
2022-09-23T20:04:15.838Z,9.60
2022-09-23T20:06:42.767Z,8.88
2022-09-23T20:09:09.442Z,10.00
2022-09-23T20:11:36.140Z,8.68
2022-09-23T20:14:04.943Z,9.55
2022-09-23T20:16:37.107Z,10.00
2022-09-23T20:19:04.856Z,8.85
2022-09-23T20:21:31.985Z,9.15
2022-09-23T20:23:58.699Z,10.23
2022-09-23T20:26:44.388Z,10.63
2022-09-23T20:29:11.328Z,9.77
2022-09-23T20:31:40.527Z,11.40
2022-09-23T20:34:08.278Z,9.82
2022-09-23T20:36:36.053Z,11.40
2022-09-23T20:39:07.991Z,10.05
2022-09-23T20:41:37.895Z,10.63
2022-09-23T20:44:07.530Z,9.82
2022-09-23T20:46:35.075Z,11.32
2022-09-23T20:49:02.472Z,10.48
2022-09-23T20:51:29.026Z,11.65
2022-09-23T20:53:55.663Z,11.07
2022-09-23T20:56:22.847Z,12.20
2022-09-23T20:58:50.787Z,10.55
2022-09-23T21:01:18.450Z,11.88
2022-09-23T21:03:48.264Z,11.18
2022-09-23T21:06:17.330Z,11.32
2022-09-23T21:08:44.662Z,10.98
2022-09-23T21:11:14.989Z,11.43
2022-09-23T21:13:49.182Z,10.30
2022-09-23T21:16:17.438Z,10.90
2022-09-23T21:18:44.667Z,11.05
2022-09-23T21:21:14.103Z,11.32
2022-09-23T21:23:42.034Z,12.38
2022-09-23T21:26:13.885Z,11.20
2022-09-23T21:28:45.172Z,12.38
2022-09-23T21:31:23.266Z,11.25
2022-09-23T21:33:54.138Z,11.25
2022-09-23T21:36:21.718Z,11.95
2022-09-23T21:38:48.226Z,12.38
2022-09-23T21:41:15.312Z,11.43
2022-09-23T21:43:41.898Z,11.80
2022-09-23T21:46:13.576Z,12.35
2022-09-23T21:48:41.941Z,13.10
2022-09-23T21:51:14.127Z,11.15
2022-09-23T21:53:41.830Z,11.90
2022-09-23T21:56:10.894Z,11.68
2022-09-23T21:58:39.065Z,11.07
2022-09-23T22:01:12.816Z,11.50
2022-09-23T22:03:39.725Z,10.98
2022-09-23T22:06:08.774Z,11.38
2022-09-23T22:08:38.234Z,11.10
2022-09-23T22:11:33.346Z,11.10
2022-09-23T22:14:02.388Z,11.73
2022-09-23T22:16:29.597Z,11.80
2022-09-23T22:18:58.396Z,12.60
2022-09-23T22:21:27.339Z,11.30
2022-09-23T22:23:57.058Z,11.55
2022-09-23T22:26:24.823Z,11.02
2022-09-23T22:29:10.244Z,10.88
2022-09-23T22:31:55.780Z,12.05
2022-09-23T22:34:48.632Z,13.07
2022-09-23T22:37:17.836Z,11.35
2022-09-23T22:39:44.817Z,12.25
2022-09-23T22:42:13.124Z,11.27
2022-09-23T22:44:39.829Z,12.48
2022-09-23T22:47:06.529Z,11.88
2022-09-23T22:49:33.139Z,13.85
2022-09-23T22:51:59.993Z,13.02
2022-09-23T22:54:33.783Z,12.85
2022-09-23T22:57:03.996Z,11.98
2022-09-23T22:59:30.634Z,13.18
2022-09-23T23:02:00.128Z,12.40
2022-09-23T23:04:27.262Z,13.63
2022-09-23T23:06:53.801Z,12.98
2022-09-23T23:09:20.374Z,12.38
2022-09-23T23:11:47.393Z,12.20
2022-09-23T23:14:16.825Z,13.95
2022-09-23T23:16:45.189Z,12.57
2022-09-23T23:19:14.267Z,13.93
2022-09-23T23:21:44.947Z,12.70
2022-09-23T23:24:16.930Z,12.85
2022-09-23T23:26:44.133Z,12.05
2022-09-23T23:29:16.034Z,13.23
2022-09-23T23:31:43.294Z,13.18
2022-09-23T23:34:28.241Z,12.35
2022-09-23T23:36:55.361Z,12.13
2022-09-23T23:39:23.762Z,12.75
2022-09-23T23:41:55.215Z,14.27
2022-09-23T23:44:23.715Z,13.00
2022-09-23T23:46:50.805Z,12.35
2022-09-23T23:49:17.444Z,14.13
2022-09-23T23:51:43.969Z,13.55
2022-09-23T23:54:11.945Z,13.27
2022-09-23T23:56:38.676Z,13.05
2022-09-23T23:59:05.211Z,14.27
